CheckWX is a tool to help pilots better visualize weather data.  It is not intended as a substitute for an official pre-flight weather briefing.

06:52:00 UTC

LHBP TAF
Budapest Ferenc Liszt International Airport
Budapest, Hungary
TAF LHBP 160515Z 1606/1706 VRB03KT CAVOK TEMPO 1610/1623 VRB20G40KT 5000 TSRA SQ SCT040CB BKN060 PROB30 TEMPO 1610/1618 2000 TSGR BECMG 1622/1624 31009KT

Jun-16@
06:00 UTC

Jun-16 @ 06:00 UTC

Jun-16@
22:00 UTC

Jun-16 @ 22:00 UTC

TAF LHBP 160515Z 1606/1706 VRB03KT CAVOK
Wind
  • Variable at 3 KTS
Conditions
No significant weather
Cloud Levels
  • No significant clouds

Jun-16@
10:00 UTC

Jun-16 @ 10:00 UTC

Jun-16@
18:00 UTC

Jun-16 @ 18:00 UTC

PROB30 TEMPO 1610/1618 2000 TSGR

Temporary - 30% Likelihood

Temporary - 30% Likelihood during this time.

Conditions
Thunderstorm, Hail

Jun-16@
10:00 UTC

Jun-16 @ 10:00 UTC

Jun-16@
23:00 UTC

Jun-16 @ 23:00 UTC

TEMPO 1610/1623 VRB20G40KT 5000 TSRA SQ SCT040CB BKN060

Temporary

Temporary Changes expected for less than half the time period

Wind
  • Variable at 20 KTS
  • {Gusting to 40 KTS
Conditions
Thunderstorm, Rain, Squalls
Cloud Levels
  • Scattered at 4,000' AGL
  • Broken at 6,000' AGL

Jun-16@
22:00 UTC

Jun-16 @ 22:00 UTC

Jun-17@
06:00 UTC

Jun-17 @ 06:00 UTC

BECMG 1622/1624 31009KT

Becoming

Becoming Conditions expected by Mon, Jun 17, 2019 @ 00:00 UTC

Wind
  • 310° at 9 KTS
Conditions
No significant weather
Cloud Levels
  • No significant clouds